Grayson, KY (41143)

12:24 PM EST on February 08, 2016 (GMT -0500)
Green | | Change Station
CLOSE
Current Station
Personal Weather Station
Location: Olive Hill, KY
Elevation: 883 ft
Nearby Weather Stations
Active Advisory: Winter Weather Advisory

Elev 883 ft 38.19 °N, 83.08 °W | Updated 1 minute ago

Overcast
Overcast
41.2 °F
Feels Like 41 °F
N
0.0
Wind Variable Wind from North
Gusts 0.0 mph

Today
High -- | Low -- °F
--% Chance of Precip.
Yesterday
High -- | Low -- °F
Precip. -- in
Pressure 29.65 in
Visibility 10.0 miles
Clouds Overcast 1500 ft
Windchill 41 °F
Dew Point 16 °F
Humidity 36%
Rainfall Not available.
Snow Depth Not available.
7:30 AM 6:01 PM
New Moon, 0% visible
SPECI KHTS 081710Z 24007KT 10SM OVC015 06/02 A2965 RMK AO2 T00560017
Pressure 29.65 in
Visibility 10.0 miles
Clouds Overcast 1500 ft
Windchill 41 °F
Dew Point 16 °F
Humidity 36%
Rainfall Not available.
Snow Depth Not available.
7:30 AM 6:01 PM
New Moon, 0% visible
SPECI KHTS 081710Z 24007KT 10SM OVC015 06/02 A2965 RMK AO2 T00560017

10-Day Weather Forecast

Almanac

Astronomy

Feb. 08, 2016 Rise Set
Actual Time
Civil Twilight
Nautical Twilight
Astronomical Twilight
Moon
Length of Visible Light
Length of Day
Tomorrow will be .
, % of the Moon is Illuminated

Today's Extremes

State Highs State Lows

Community

WunderPhotos

Upload Photos

1,891,471 photos uploaded!

WunderBlog® & News

Nearby

Air Quality

  Air Quality AQ Index Pollutant
Not available.

Snow Depth

Station Depth Elevation

Earthquake Activity

City Distance Mag. Time & Date
Minimum magnitude displayed is 2.5.

Coastal Water Temperatures

Place Temperature

Stations

Nearby Weather Stations

Station Location Temp. Windchill Dew Point Humidity Wind Precip. Elev Updated Type
                   

Watches & Warnings

Winter Weather Advisory
Issued: 10:31 AM EST Feb. 8, 2016 – National Weather Service

... Winter Weather Advisory remains in effect from 7 PM this
evening to 7 am EST Wednesday...

* hazard types... snow.

* Snow accumulations... snow accumulation of 2 to 6 inches over a
36 hour period. Some settling and melting of fallen snow is
expected to occur during the advisory period.

* Timing... snow will be around for most of the week with varying
intensity.

* Impacts... travel may be difficult at times. Visibilities will
be limited at times.

Precautionary/preparedness actions...

A Winter Weather Advisory for snow means that periods of snow
will cause primarily travel difficulties. Be prepared for snow
covered roads and limited visibilities... and use caution while
driving.